Time;durP1;ratioP1;P1;durP2;ratioP2;P2;SDS_P1;SDS_P2;PMS_P1;PMS_P2;Temp;Humidity;BMP_temperature;BMP_pressure;BME280_temperature;BME280_humidity;BME280_pressure;Samples;Min_cycle;Max_cycle;Signal;HPM_P1;HPM_P2
2023/10/24 00:00:33;;;;;;;;;;;;;;;14.83;100.00;100134.09;5255342;28;19919;-73
2023/10/24 00:03:04;;;;;;;;;;;;;;;14.84;100.00;100133.09;5254475;28;19923;-73
2023/10/24 00:05:36;;;;;;;;;;;;;;;14.81;100.00;100134.28;5254479;28;20282;-73
2023/10/24 00:08:08;;;;;;;;;;;;;;;14.86;100.00;100127.69;5254425;28;19924;-73
2023/10/24 00:10:39;;;;;;;;;;;;;;;14.78;100.00;100136.47;5256755;28;19916;-73
2023/10/24 00:13:12;;;;;;;;;;;;;;;14.81;100.00;100129.03;5253105;28;19921;-73
2023/10/24 00:15:44;;;;;;;;;;;;;;;14.84;100.00;100135.75;5254566;28;19916;-73
2023/10/24 00:18:15;;;;;;;;;;;;;;;14.85;100.00;100118.94;5254373;28;20366;-73
2023/10/24 00:20:47;;;;;;;;;;;;;;;14.84;100.00;100131.28;5252140;28;19921;-73
2023/10/24 00:23:19;;;;;;;;;;;;;;;14.82;100.00;100128.00;5255959;28;19919;-73
2023/10/24 00:25:51;;;;;;;;;;;;;;;14.83;100.00;100116.47;5255945;28;19947;-73
2023/10/24 00:28:22;;;;;;;;;;;;;;;14.80;100.00;100121.28;5254208;28;19931;-73
2023/10/24 00:30:54;;;;;;;;;;;;;;;14.84;100.00;100125.19;5254525;28;19920;-73
2023/10/24 00:33:26;;;;;;;;;;;;;;;14.83;100.00;100123.56;5256137;28;19913;-73
2023/10/24 00:35:57;;;;;;;;;;;;;;;14.79;100.00;100131.00;5252972;28;19920;-73
2023/10/24 00:38:29;;;;;;;;;;;;;;;14.82;100.00;100116.66;5251872;28;19917;-73
2023/10/24 00:41:01;;;;;;;;;;;;;;;14.78;100.00;100124.09;5254713;28;19925;-73
2023/10/24 00:43:33;;;;;;;;;;;;;;;14.76;100.00;100125.25;5252161;28;19924;-73
2023/10/24 00:46:04;;;;;;;;;;;;;;;14.73;100.00;100129.06;5252600;28;20294;-73
2023/10/24 00:48:37;;;;;;;;;;;;;;;14.74;100.00;100137.81;5255283;28;19919;-73
2023/10/24 00:51:08;;;;;;;;;;;;;;;14.75;100.00;100129.72;5254672;28;19923;-73
2023/10/24 00:53:40;;;;;;;;;;;;;;;14.74;100.00;100137.81;5251330;28;20329;-73
2023/10/24 00:56:12;;;;;;;;;;;;;;;14.73;100.00;100131.69;5250620;28;19926;-73
2023/10/24 00:58:44;;;;;;;;;;;;;;;14.73;100.00;100136.13;5247719;28;20390;-73
2023/10/24 01:01:16;;;;;;;;;;;;;;;14.68;100.00;100134.03;5243439;28;19920;-73
2023/10/24 01:03:48;;;;;;;;;;;;;;;14.74;100.00;100137.81;5256336;28;19936;-73
2023/10/24 01:06:20;;;;;;;;;;;;;;;14.74;100.00;100128.06;5253925;28;19928;-74
2023/10/24 01:08:52;;;;;;;;;;;;;;;14.72;100.00;100129.22;5254550;28;20289;-73
2023/10/24 01:11:24;;;;;;;;;;;;;;;14.70;100.00;100125.94;5256760;28;19913;-73
2023/10/24 01:13:56;;;;;;;;;;;;;;;14.64;100.00;100129.28;5256162;28;20014;-73
2023/10/24 01:16:28;;;;;;;;;;;;;;;14.56;100.00;100125.69;5254147;28;19976;-73
2023/10/24 01:19:00;;;;;;;;;;;;;;;14.53;100.00;100123.41;5254518;28;20370;-73
2023/10/24 01:21:32;;;;;;;;;;;;;;;14.61;100.00;100130.44;5256614;28;20374;-73
2023/10/24 01:24:04;;;;;;;;;;;;;;;14.64;100.00;100124.03;5253560;28;19935;-73
2023/10/24 01:26:37;;;;;;;;;;;;;;;14.63;100.00;100128.47;5253843;28;19923;-73
2023/10/24 01:29:09;;;;;;;;;;;;;;;14.65;100.00;100125.66;5253421;28;19923;-73
2023/10/24 01:31:41;;;;;;;;;;;;;;;14.66;100.00;100128.13;5254179;28;19917;-73
2023/10/24 01:34:13;;;;;;;;;;;;;;;14.68;100.00;100136.66;5253954;28;19930;-73
2023/10/24 01:36:44;;;;;;;;;;;;;;;14.63;100.00;100131.09;5255536;28;19916;-73
2023/10/24 01:39:16;;;;;;;;;;;;;;;14.61;100.00;100138.34;5255185;28;20409;-73
2023/10/24 01:41:48;;;;;;;;;;;;;;;14.63;100.00;100135.56;5254508;28;19927;-73
2023/10/24 01:44:19;;;;;;;;;;;;;;;14.65;100.00;100130.94;5255273;28;19927;-73
2023/10/24 01:46:51;;;;;;;;;;;;;;;14.62;100.00;100126.00;5255989;28;20274;-73
2023/10/24 01:49:23;;;;;;;;;;;;;;;14.52;100.00;100119.13;5257224;28;19913;-73
2023/10/24 01:51:54;;;;;;;;;;;;;;;14.58;100.00;100117.59;5258312;28;19916;-73
2023/10/24 01:54:26;;;;;;;;;;;;;;;14.56;100.00;100123.06;5257336;28;20396;-73
2023/10/24 01:56:58;;;;;;;;;;;;;;;14.46;100.00;100109.25;5254916;28;20050;-73
2023/10/24 01:59:29;;;;;;;;;;;;;;;14.57;100.00;100126.53;5258071;28;19928;-73
2023/10/24 02:02:01;;;;;;;;;;;;;;;14.55;100.00;100125.88;5257686;28;20437;-73
2023/10/24 02:04:33;;;;;;;;;;;;;;;14.57;100.00;100118.63;5258216;28;19924;-73
2023/10/24 02:07:05;;;;;;;;;;;;;;;14.58;100.00;100117.59;5257700;28;19923;-73
2023/10/24 02:09:37;;;;;;;;;;;;;;;14.58;100.00;100121.09;5260133;28;19986;-73
2023/10/24 02:12:08;;;;;;;;;;;;;;;14.59;100.00;100121.91;5258709;28;19924;-73
2023/10/24 02:14:40;;;;;;;;;;;;;;;14.56;100.00;100127.53;5257011;28;19924;-73
2023/10/24 02:17:12;;;;;;;;;;;;;;;14.57;100.00;100123.88;5257137;28;19917;-73
2023/10/24 02:19:43;;;;;;;;;;;;;;;14.53;100.00;100125.22;5258793;28;19917;-73
2023/10/24 02:22:15;;;;;;;;;;;;;;;14.51;100.00;100124.59;5256898;28;20453;-73
2023/10/24 02:24:47;;;;;;;;;;;;;;;14.48;100.00;100122.28;5253666;28;20207;-73
2023/10/24 02:27:18;;;;;;;;;;;;;;;14.41;100.00;100116.84;5238617;28;19912;-73
2023/10/24 02:29:50;;;;;;;;;;;;;;;14.44;100.00;100121.78;5253736;28;20267;-73
2023/10/24 02:32:22;;;;;;;;;;;;;;;14.44;100.00;100121.78;5259313;28;19917;-73
2023/10/24 02:34:53;;;;;;;;;;;;;;;14.40;100.00;100128.41;5259027;28;19923;-73
2023/10/24 02:37:25;;;;;;;;;;;;;;;14.33;100.00;100125.63;5256616;28;19920;-73
2023/10/24 02:39:57;;;;;;;;;;;;;;;14.29;100.00;100126.16;5257894;28;19924;-73
2023/10/24 02:42:29;;;;;;;;;;;;;;;14.34;100.00;100129.91;5258327;28;20389;-73
2023/10/24 02:45:00;;;;;;;;;;;;;;;14.32;100.00;100141.63;5257605;28;19927;-73
2023/10/24 02:47:32;;;;;;;;;;;;;;;14.31;100.00;100146.03;5257091;28;19913;-73
2023/10/24 02:50:05;;;;;;;;;;;;;;;14.31;100.00;100140.78;5258742;28;20031;-73
2023/10/24 02:52:38;;;;;;;;;;;;;;;14.33;100.00;100138.81;5261225;28;20369;-73
2023/10/24 02:55:09;;;;;;;;;;;;;;;14.36;100.00;100140.28;5257000;28;19916;-73
2023/10/24 02:57:41;;;;;;;;;;;;;;;14.33;100.00;100146.72;5258338;28;19920;-73
2023/10/24 03:00:13;;;;;;;;;;;;;;;14.24;100.00;100152.97;5257987;28;20378;-73
2023/10/24 03:02:45;;;;;;;;;;;;;;;14.30;100.00;100154.94;5255869;28;19928;-73
2023/10/24 03:05:16;;;;;;;;;;;;;;;14.22;100.00;100157.63;5256258;28;19912;-73
2023/10/24 03:07:48;;;;;;;;;;;;;;;14.23;100.00;100151.34;5255274;28;19916;-73
2023/10/24 03:10:20;;;;;;;;;;;;;;;14.17;100.00;100157.31;5254999;28;19916;-73
2023/10/24 03:12:52;;;;;;;;;;;;;;;14.22;100.00;100160.25;5238866;28;19921;-73
2023/10/24 03:15:24;;;;;;;;;;;;;;;14.23;100.00;100153.97;5255864;28;19912;-73
2023/10/24 03:17:55;;;;;;;;;;;;;;;14.20;100.00;100158.78;5253305;28;19955;-73
2023/10/24 03:20:27;;;;;;;;;;;;;;;14.21;100.00;100157.81;5255260;28;19921;-73
2023/10/24 03:22:59;;;;;;;;;;;;;;;14.18;100.00;100158.97;5256105;28;19956;-73
2023/10/24 03:25:31;;;;;;;;;;;;;;;14.17;100.00;100161.75;5258354;28;19912;-73
2023/10/24 03:28:02;;;;;;;;;;;;;;;14.18;100.00;100158.13;5255604;28;19983;-73
2023/10/24 03:30:34;;;;;;;;;;;;;;;14.12;100.00;100155.16;5254936;28;19912;-73
2023/10/24 03:33:06;;;;;;;;;;;;;;;14.16;100.00;100160.09;5253590;28;20274;-73
2023/10/24 03:35:37;;;;;;;;;;;;;;;14.18;100.00;100161.59;5257585;28;19913;-73
2023/10/24 03:38:09;;;;;;;;;;;;;;;14.18;100.00;100163.41;5257422;28;19936;-73
2023/10/24 03:40:41;;;;;;;;;;;;;;;14.19;100.00;100157.13;5258094;28;20302;-73
2023/10/24 03:43:13;;;;;;;;;;;;;;;14.13;100.00;100150.75;5256922;28;19931;-73
2023/10/24 03:45:44;;;;;;;;;;;;;;;14.12;100.00;100154.34;5257078;28;19927;-73
2023/10/24 03:48:16;;;;;;;;;;;;;;;14.14;100.00;100168.19;5254874;28;19923;-73
2023/10/24 03:50:48;;;;;;;;;;;;;;;14.05;100.00;100159.50;5256039;28;19912;-73
2023/10/24 03:53:20;;;;;;;;;;;;;;;14.10;100.00;100157.16;5254715;28;19920;-73
2023/10/24 03:55:55;;;;;;;;;;;;;;;14.08;100.00;100161.78;5256816;28;19913;-73
2023/10/24 03:58:27;;;;;;;;;;;;;;;14.09;100.00;100160.81;5256307;28;19927;-73
2023/10/24 04:01:04;;;;;;;;;;;;;;;13.98;100.00;100162.94;5259154;28;19921;-73
2023/10/24 04:03:35;;;;;;;;;;;;;;;13.96;100.00;100167.59;5257155;28;19913;-73
2023/10/24 04:06:13;;;;;;;;;;;;;;;14.07;100.00;100161.94;5256949;28;19919;-73
2023/10/24 04:08:45;;;;;;;;;;;;;;;14.13;100.00;100161.28;5254109;28;19936;-73
2023/10/24 04:11:17;;;;;;;;;;;;;;;14.10;100.00;100162.44;5257398;28;19912;-73
2023/10/24 04:13:49;;;;;;;;;;;;;;;14.10;100.00;100164.25;5254048;28;20286;-73
2023/10/24 04:16:21;;;;;;;;;;;;;;;14.09;100.00;100162.59;5254668;28;19923;-73
2023/10/24 04:18:53;;;;;;;;;;;;;;;14.01;100.00;100154.72;5255108;28;20382;-73
2023/10/24 04:21:24;;;;;;;;;;;;;;;14.08;100.00;100158.31;5257634;28;19916;-73
2023/10/24 04:23:57;;;;;;;;;;;;;;;14.05;100.00;100148.13;5256352;28;19916;-73
2023/10/24 04:26:29;;;;;;;;;;;;;;;14.03;100.00;100144.84;5258410;28;19943;-73
2023/10/24 04:29:01;;;;;;;;;;;;;;;13.90;100.00;100136.66;5256678;28;19916;-73
2023/10/24 04:31:32;;;;;;;;;;;;;;;13.96;100.00;100130.72;5238073;28;19917;-73
2023/10/24 04:34:04;;;;;;;;;;;;;;;13.93;100.00;100123.97;5254396;28;19916;-73
2023/10/24 04:36:36;;;;;;;;;;;;;;;13.85;100.00;100124.00;5256039;28;19916;-73
2023/10/24 04:39:08;;;;;;;;;;;;;;;13.95;100.00;100123.81;5253388;28;19916;-73
2023/10/24 04:41:40;;;;;;;;;;;;;;;13.93;100.00;100123.16;5256057;28;20439;-73
2023/10/24 04:44:12;;;;;;;;;;;;;;;13.97;100.00;100129.72;5254100;28;19916;-73
2023/10/24 04:46:44;;;;;;;;;;;;;;;13.93;100.00;100123.97;5254159;28;20201;-73
2023/10/24 04:49:15;;;;;;;;;;;;;;;13.88;100.00;100131.56;5251126;28;20370;-73
2023/10/24 04:51:47;;;;;;;;;;;;;;;13.94;100.00;100124.78;5254970;28;19962;-73
2023/10/24 04:54:19;;;;;;;;;;;;;;;13.90;100.00;100134.81;5255797;28;19913;-73
2023/10/24 04:56:50;;;;;;;;;;;;;;;13.90;100.00;100134.00;5257368;28;19921;-73
2023/10/24 04:59:22;;;;;;;;;;;;;;;13.89;100.00;100138.47;5257328;28;19921;-73
2023/10/24 05:01:54;;;;;;;;;;;;;;;13.90;100.00;100140.09;5254998;28;19925;-73
2023/10/24 05:04:26;;;;;;;;;;;;;;;13.89;100.00;100143.72;5255666;28;20389;-73
2023/10/24 05:06:58;;;;;;;;;;;;;;;13.90;100.00;100137.47;5256271;28;19912;-73
2023/10/24 05:09:29;;;;;;;;;;;;;;;13.90;100.00;100140.09;5242377;28;19921;-73
2023/10/24 05:12:01;;;;;;;;;;;;;;;13.88;100.00;100137.66;5256170;28;20406;-73
2023/10/24 05:14:33;;;;;;;;;;;;;;;13.92;100.00;100135.50;5251577;28;19917;-73
2023/10/24 05:17:04;;;;;;;;;;;;;;;13.94;100.00;100140.56;5255804;28;19932;-73
2023/10/24 05:19:36;;;;;;;;;;;;;;;13.92;100.00;100140.75;5258355;28;20293;-73
2023/10/24 05:22:08;;;;;;;;;;;;;;;13.98;100.00;100136.63;5264732;28;19931;-74
2023/10/24 05:24:40;;;;;;;;;;;;;;;13.93;100.00;100138.94;5264239;28;19917;-73
2023/10/24 05:27:11;;;;;;;;;;;;;;;13.95;100.00;100147.50;5261069;28;19931;-73
2023/10/24 05:29:43;;;;;;;;;;;;;;;13.97;100.00;100141.06;5262034;28;19923;-73
2023/10/24 05:32:15;;;;;;;;;;;;;;;14.00;100.00;100134.66;5265231;28;19919;-73
2023/10/24 05:34:47;;;;;;;;;;;;;;;13.99;100.00;100122.47;5259612;28;19970;-74
2023/10/24 05:37:18;;;;;;;;;;;;;;;14.01;100.00;100115.22;5262574;28;19919;-73
2023/10/24 05:39:50;;;;;;;;;;;;;;;13.96;100.00;100102.56;5263658;28;19928;-73
2023/10/24 05:42:22;;;;;;;;;;;;;;;14.00;100.00;100110.94;5261935;28;19940;-73
2023/10/24 05:44:53;;;;;;;;;;;;;;;14.01;100.00;100117.84;5260207;28;19927;-73
2023/10/24 05:47:25;;;;;;;;;;;;;;;13.99;100.00;100128.56;5257476;28;19921;-72
2023/10/24 05:49:57;;;;;;;;;;;;;;;14.01;100.00;100129.19;5258139;28;19920;-73
2023/10/24 05:52:28;;;;;;;;;;;;;;;14.02;100.00;100137.94;5258462;28;19913;-72
2023/10/24 05:55:00;;;;;;;;;;;;;;;13.96;100.00;100131.53;5260991;28;20374;-73
2023/10/24 05:57:32;;;;;;;;;;;;;;;13.97;100.00;100135.78;5259039;28;19932;-73
2023/10/24 06:00:05;;;;;;;;;;;;;;;13.92;100.00;100137.31;5259696;28;19916;-73
2023/10/24 06:02:36;;;;;;;;;;;;;;;13.91;100.00;100138.31;5262197;28;19916;-73
2023/10/24 06:05:09;;;;;;;;;;;;;;;13.88;100.00;100148.19;5266893;28;19924;-73
2023/10/24 06:07:40;;;;;;;;;;;;;;;13.88;100.00;100150.00;5257446;28;19924;-73
2023/10/24 06:10:12;;;;;;;;;;;;;;;13.82;100.00;100154.09;5266162;28;19924;-73
2023/10/24 06:12:44;;;;;;;;;;;;;;;13.85;100.00;100145.88;5262390;28;19909;-73
2023/10/24 06:15:15;;;;;;;;;;;;;;;13.88;100.00;100137.66;5263307;28;20374;-73
2023/10/24 06:17:47;;;;;;;;;;;;;;;13.91;100.00;100133.03;5262395;28;19912;-73
2023/10/24 06:20:19;;;;;;;;;;;;;;;13.94;100.00;100124.78;5268797;28;19927;-73
2023/10/24 06:22:51;;;;;;;;;;;;;;;13.93;100.00;100125.78;5270632;28;20285;-73
2023/10/24 06:25:22;;;;;;;;;;;;;;;13.92;100.00;100127.59;5267538;28;19959;-73
2023/10/24 06:27:54;;;;;;;;;;;;;;;13.95;100.00;100124.63;5269178;28;19912;-73
2023/10/24 06:30:26;;;;;;;;;;;;;;;13.97;100.00;100127.09;5264808;28;19917;-73
2023/10/24 06:32:58;;;;;;;;;;;;;;;13.86;100.00;100141.44;5266645;28;19924;-73
2023/10/24 06:35:29;;;;;;;;;;;;;;;13.87;100.00;100140.47;5268607;28;19966;-73
2023/10/24 06:38:01;;;;;;;;;;;;;;;13.87;100.00;100145.72;5269418;28;20373;-73
2023/10/24 06:40:33;;;;;;;;;;;;;;;13.92;100.00;100155.75;5268759;28;19912;-74
2023/10/24 06:43:05;;;;;;;;;;;;;;;13.92;100.00;100168.91;5265539;28;19913;-74
2023/10/24 06:45:37;;;;;;;;;;;;;;;13.96;100.00;100176.31;5269340;28;19923;-73
2023/10/24 06:48:11;;;;;;;;;;;;;;;13.94;100.00;100170.41;5268819;28;19908;-73
2023/10/24 06:50:42;;;;;;;;;;;;;;;13.92;100.00;100161.00;5266601;28;20406;-73
2023/10/24 06:53:14;;;;;;;;;;;;;;;13.92;100.00;100147.84;5270784;28;19919;-73
2023/10/24 06:55:46;;;;;;;;;;;;;;;13.88;100.00;100145.53;5271235;28;19912;-73
2023/10/24 06:58:17;;;;;;;;;;;;;;;13.91;100.00;100146.22;5265541;28;19909;-73
2023/10/24 07:00:49;;;;;;;;;;;;;;;13.92;100.00;100147.84;5269644;28;19913;-74
2023/10/24 07:03:21;;;;;;;;;;;;;;;13.93;100.00;100155.56;5250731;28;19989;-73
2023/10/24 07:05:53;;;;;;;;;;;;;;;13.87;100.00;100137.81;5248737;28;19919;-73
2023/10/24 07:08:25;;;;;;;;;;;;;;;13.92;100.00;100150.47;5266154;28;20381;-72
2023/10/24 07:10:57;;;;;;;;;;;;;;;13.95;100.00;100135.16;5268516;28;19909;-73
2023/10/24 07:13:29;;;;;;;;;;;;;;;13.99;100.00;100136.47;5249291;28;19916;-73
2023/10/24 07:16:09;;;;;;;;;;;;;;;13.97;100.00;100134.97;5267629;28;19916;-73
2023/10/24 07:18:41;;;;;;;;;;;;;;;14.01;100.00;100133.66;5267183;28;19917;-73
2023/10/24 07:21:15;;;;;;;;;;;;;;;14.05;100.00;100133.16;5266429;28;19939;-73
2023/10/24 07:23:46;;;;;;;;;;;;;;;14.05;100.00;100135.78;5249672;28;20377;-73
2023/10/24 07:26:18;;;;;;;;;;;;;;;14.07;100.00;100139.06;5269000;28;19916;-74
2023/10/24 07:28:50;;;;;;;;;;;;;;;14.11;100.00;100144.81;5269737;28;19948;-73
2023/10/24 07:31:22;;;;;;;;;;;;;;;14.17;100.00;100149.41;5264544;28;19923;-73
2023/10/24 07:33:53;;;;;;;;;;;;;;;14.20;100.00;100153.50;5269175;28;20393;-73
2023/10/24 07:36:30;;;;;;;;;;;;;;;14.24;100.00;100146.91;5268939;28;19916;-73
2023/10/24 07:39:02;;;;;;;;;;;;;;;14.23;100.00;100142.63;5263850;28;19939;-73
2023/10/24 07:41:34;;;;;;;;;;;;;;;14.26;100.00;100148.38;5269615;28;19919;-73
2023/10/24 07:44:06;;;;;;;;;;;;;;;14.32;100.00;100144.25;5266387;28;20381;-73
2023/10/24 07:46:37;;;;;;;;;;;;;;;14.36;100.00;100141.09;5268986;28;19912;-73
2023/10/24 07:49:10;;;;;;;;;;;;;;;14.39;100.00;100133.81;5267282;28;19913;-74
2023/10/24 07:51:41;;;;;;;;;;;;;;;14.39;100.00;100134.66;5266107;28;19920;-73
2023/10/24 07:54:13;;;;;;;;;;;;;;;14.44;100.00;100127.06;5269014;28;20064;-73
2023/10/24 07:56:45;;;;;;;;;;;;;;;14.47;100.00;100131.16;5267142;28;19921;-73
2023/10/24 07:59:16;;;;;;;;;;;;;;;14.47;100.00;100125.88;5270149;28;20377;-74
2023/10/24 08:01:48;;;;;;;;;;;;;;;14.49;100.00;100130.03;5263657;28;19908;-74
2023/10/24 08:04:20;;;;;;;;;;;;;;;14.46;100.00;100125.06;5267308;28;19912;-73
2023/10/24 08:06:52;;;;;;;;;;;;;;;14.45;100.00;100128.69;5267872;28;19909;-73
2023/10/24 08:09:23;;;;;;;;;;;;;;;14.47;100.00;100123.25;5266813;28;20263;-73
2023/10/24 08:11:55;;;;;;;;;;;;;;;14.50;100.00;100130.84;5271067;28;19928;-74
2023/10/24 08:14:27;;;;;;;;;;;;;;;14.55;100.00;100141.69;5264575;28;19912;-73
2023/10/24 08:16:58;;;;;;;;;;;;;;;14.59;100.00;100137.72;5266948;28;20286;-73
2023/10/24 08:19:30;;;;;;;;;;;;;;;14.63;100.00;100131.09;5264877;28;19913;-74
2023/10/24 08:22:02;;;;;;;;;;;;;;;14.71;100.00;100131.06;5267257;28;20484;-74
2023/10/24 08:24:33;;;;;;;;;;;;;;;14.78;100.00;100139.09;5265508;28;19913;-74
2023/10/24 08:27:05;;;;;;;;;;;;;;;14.80;100.00;100134.44;5268297;28;19919;-73
2023/10/24 08:29:37;;;;;;;;;;;;;;;14.72;100.00;100135.31;5268222;28;20961;-73
2023/10/24 08:32:09;;;;;;;;;;;;;;;14.77;100.00;100142.69;5266248;28;19915;-74
2023/10/24 08:34:41;;;;;;;;;;;;;;;14.81;100.00;100150.13;5266328;28;20002;-74
2023/10/24 08:37:13;;;;;;;;;;;;;;;14.89;100.00;100162.44;5265430;28;20289;-73
2023/10/24 08:39:45;;;;;;;;;;;;;;;14.88;100.00;100168.69;5270691;28;19912;-73
2023/10/24 08:42:17;;;;;;;;;;;;;;;14.94;100.00;100168.00;5267857;28;19908;-74
2023/10/24 08:44:49;;;;;;;;;;;;;;;14.94;100.00;100173.25;5267114;28;19916;-74
2023/10/24 08:47:21;;;;;;;;;;;;;;;14.95;100.00;100177.53;5264241;28;19916;-74
2023/10/24 08:49:54;;;;;;;;;;;;;;;15.07;100.00;100167.41;5267276;28;20381;-74
2023/10/24 08:52:25;;;;;;;;;;;;;;;15.07;100.00;100155.03;5264860;28;19913;-74
2023/10/24 08:55:01;;;;;;;;;;;;;;;15.13;100.00;100160.63;5264609;28;19915;-74
2023/10/24 08:57:33;;;;;;;;;;;;;;;15.11;100.00;100171.31;5267169;28;19923;-74
2023/10/24 09:00:08;;;;;;;;;;;;;;;15.12;100.00;100148.44;5268546;28;19916;-74
2023/10/24 09:02:46;;;;;;;;;;;;;;;15.16;100.00;100155.00;5265461;28;20409;-73
2023/10/24 09:05:18;;;;;;;;;;;;;;;15.14;100.00;100154.34;5265529;28;19908;-73
2023/10/24 09:07:50;;;;;;;;;;;;;;;15.19;100.00;100141.41;5266633;28;19923;-73
2023/10/24 09:10:22;;;;;;;;;;;;;;;15.17;100.00;100151.34;5268149;28;19908;-73
2023/10/24 09:12:54;;;;;;;;;;;;;;;15.22;100.00;100152.44;5266501;28;19908;-73
2023/10/24 09:15:25;;;;;;;;;;;;;;;15.22;100.00;100141.06;5264015;28;20358;-73
2023/10/24 09:17:57;;;;;;;;;;;;;;;15.25;100.00;100138.09;5265047;28;19912;-74
2023/10/24 09:20:30;;;;;;;;;;;;;;;15.22;100.00;100133.16;5265917;28;20282;-74
2023/10/24 09:23:08;;;;;;;;;;;;;;;15.26;100.00;100135.25;5264890;28;19996;-73
2023/10/24 09:25:40;;;;;;;;;;;;;;;15.32;100.00;100136.38;5265526;28;19909;-74
2023/10/24 09:28:16;;;;;;;;;;;;;;;15.38;100.00;100124.28;5264336;28;19930;-74
2023/10/24 09:30:47;;;;;;;;;;;;;;;15.45;100.00;100117.28;5265818;28;19916;-74
2023/10/24 09:33:19;;;;;;;;;;;;;;;15.44;100.00;100124.38;5263316;28;20306;-74
2023/10/24 09:35:51;;;;;;;;;;;;;;;15.54;100.00;100127.59;5265488;28;19908;-73
2023/10/24 09:38:23;;;;;;;;;;;;;;;15.67;100.00;100134.91;5262132;28;19912;-74
2023/10/24 09:40:56;;;;;;;;;;;;;;;15.73;100.00;100139.50;5263196;28;20245;-74
2023/10/24 09:43:29;;;;;;;;;;;;;;;15.79;100.00;100140.56;5265898;28;19943;-73
2023/10/24 09:46:01;;;;;;;;;;;;;;;15.87;100.00;100145.75;5265413;28;19913;-74
2023/10/24 09:48:34;;;;;;;;;;;;;;;15.89;100.00;100127.91;5262955;28;20297;-74
2023/10/24 09:51:06;;;;;;;;;;;;;;;15.94;100.00;100111.53;5262176;28;19908;-74
2023/10/24 09:53:38;;;;;;;;;;;;;;;15.85;100.00;100116.09;5266722;28;19912;-74
2023/10/24 09:56:11;;;;;;;;;;;;;;;15.89;100.00;100124.47;5265428;28;19913;-74
2023/10/24 09:58:43;;;;;;;;;;;;;;;15.88;100.00;100122.84;5265052;28;19913;-74
2023/10/24 10:01:16;;;;;;;;;;;;;;;15.90;100.00;100118.16;5265809;28;19934;-74
2023/10/24 10:03:49;;;;;;;;;;;;;;;15.89;100.00;100120.00;5264364;28;19908;-74
2023/10/24 10:06:20;;;;;;;;;;;;;;;15.89;100.00;100116.53;5261909;28;19923;-73
2023/10/24 10:08:54;;;;;;;;;;;;;;;15.90;100.00;100121.63;5269903;28;19908;-74
2023/10/24 10:11:26;;;;;;;;;;;;;;;15.92;100.00;100129.38;5268529;28;19923;-74
2023/10/24 10:14:07;;;;;;;;;;;;;;;15.95;100.00;100129.03;5268430;28;19919;-74
2023/10/24 10:16:41;;;;;;;;;;;;;;;15.94;100.00;100130.00;5267861;28;19924;-74
2023/10/24 10:19:21;;;;;;;;;;;;;;;15.96;100.00;100130.66;5268918;28;20270;-74
2023/10/24 10:22:11;;;;;;;;;;;;;;;15.90;100.00;100140.13;5265661;28;19920;-74
2023/10/24 10:25:01;;;;;;;;;;;;;;;15.94;100.00;100146.69;5266702;28;19920;-74
2023/10/24 10:27:33;;;;;;;;;;;;;;;15.94;100.00;100144.03;5260123;28;19924;-75
2023/10/24 10:30:18;;;;;;;;;;;;;;;15.90;100.00;100141.94;5262270;28;19995;-73
2023/10/24 10:32:55;;;;;;;;;;;;;;;15.86;100.00;100135.38;5260428;28;19917;-74
2023/10/24 10:35:45;;;;;;;;;;;;;;;15.88;100.00;100133.41;5260340;28;19909;-75
2023/10/24 10:38:35;;;;;;;;;;;;;;;15.84;100.00;100129.47;5259007;28;20396;-74
2023/10/24 10:41:21;;;;;;;;;;;;;;;15.80;100.00;100134.31;5260326;28;20294;-74
2023/10/24 10:43:54;;;;;;;;;;;;;;;15.78;100.00;100129.19;5261790;28;20373;-74
2023/10/24 10:46:27;;;;;;;;;;;;;;;15.78;100.00;100125.72;5260922;28;19908;-74
2023/10/24 10:48:59;;;;;;;;;;;;;;;15.70;100.00;100117.91;5258463;28;19923;-74
2023/10/24 10:51:32;;;;;;;;;;;;;;;15.74;100.00;100120.00;5260553;28;19916;-74
2023/10/24 10:54:10;;;;;;;;;;;;;;;15.72;100.00;100126.44;5259572;28;20580;-73
2023/10/24 10:56:41;;;;;;;;;;;;;;;15.62;100.00;100126.69;5259131;28;19912;-73
2023/10/24 10:59:22;;;;;;;;;;;;;;;15.63;100.00;100130.16;5258478;28;19943;-73
2023/10/24 11:02:01;;;;;;;;;;;;;;;15.51;100.00;100122.66;5258589;28;19912;-73
2023/10/24 11:04:35;;;;;;;;;;;;;;;15.48;100.00;100117.75;5258785;28;19916;-73
2023/10/24 11:07:07;;;;;;;;;;;;;;;15.41;100.00;100123.91;5259559;28;19912;-74
2023/10/24 11:09:38;;;;;;;;;;;;;;;15.38;100.00;100135.66;5259151;28;19924;-74
2023/10/24 11:12:23;;;;;;;;;;;;;;;15.38;100.00;100138.31;5258355;28;19924;-73
2023/10/24 11:15:07;;;;;;;;;;;;;;;15.36;100.00;100142.94;5260016;28;20720;-73
2023/10/24 11:17:39;;;;;;;;;;;;;;;15.32;100.00;100147.75;5261287;28;20366;-73
2023/10/24 11:20:11;;;;;;;;;;;;;;;15.36;100.00;100140.28;5256765;28;20212;-73
2023/10/24 11:22:42;;;;;;;;;;;;;;;15.41;100.00;100140.56;5257680;28;20393;-73
2023/10/24 11:25:16;;;;;;;;;;;;;;;15.44;100.00;100134.94;5260046;28;19931;-73
2023/10/24 11:27:49;;;;;;;;;;;;;;;15.39;100.00;100132.03;5259033;28;19912;-73
2023/10/24 11:30:21;;;;;;;;;;;;;;;15.44;100.00;100129.66;5257795;28;20386;-75
2023/10/24 11:32:53;;;;;;;;;;;;;;;15.39;100.00;100115.38;5258412;28;19926;-73
2023/10/24 11:35:24;;;;;;;;;;;;;;;15.33;100.00;100123.00;5260046;28;19920;-76
2023/10/24 11:37:56;;;;;;;;;;;;;;;15.32;100.00;100131.09;5257573;28;20300;-73
2023/10/24 11:40:28;;;;;;;;;;;;;;;15.33;100.00;100132.72;5244491;28;19920;-75
2023/10/24 11:43:04;;;;;;;;;;;;;;;15.29;100.00;100121.72;5258264;28;19912;-75
2023/10/24 11:45:38;;;;;;;;;;;;;;;15.17;100.00;100114.41;5259461;28;19909;-73
2023/10/24 11:48:10;;;;;;;;;;;;;;;15.14;100.00;100109.47;5256115;28;20359;-73
2023/10/24 11:50:43;;;;;;;;;;;;;;;15.08;100.00;100122.41;5256825;28;20323;-74
2023/10/24 11:53:22;;;;;;;;;;;;;;;15.07;100.00;100106.72;5259378;28;19931;-73
2023/10/24 11:55:54;;;;;;;;;;;;;;;15.00;100.00;100098.72;5258021;28;19915;-73
2023/10/24 11:58:32;;;;;;;;;;;;;;;15.03;100.00;100092.25;5255883;28;20365;-73
2023/10/24 12:01:05;;;;;;;;;;;;;;;14.99;100.00;100080.41;5257325;28;19916;-75
2023/10/24 12:03:47;;;;;;;;;;;;;;;15.08;100.00;100092.56;5257043;28;19913;-75
2023/10/24 12:06:19;;;;;;;;;;;;;;;15.08;100.00;100087.28;5256573;28;19923;-73
2023/10/24 12:08:50;;;;;;;;;;;;;;;15.07;100.00;100083.78;5257001;28;19913;-74
2023/10/24 12:11:22;;;;;;;;;;;;;;;15.08;100.00;100090.72;5258015;28;19912;-73
2023/10/24 12:13:55;;;;;;;;;;;;;;;15.08;100.00;100088.09;5258758;28;19908;-74
2023/10/24 12:16:27;;;;;;;;;;;;;;;15.05;100.00;100088.44;5257706;28;20390;-73
2023/10/24 12:18:59;;;;;;;;;;;;;;;15.09;100.00;100073.09;5257151;28;19923;-73
2023/10/24 12:21:30;;;;;;;;;;;;;;;15.09;100.00;100067.81;5257237;28;20441;-73
2023/10/24 12:24:02;;;;;;;;;;;;;;;15.07;100.00;100070.59;5257676;28;19912;-73
2023/10/24 12:26:37;;;;;;;;;;;;;;;15.08;100.00;100064.34;5257601;28;19927;-73
2023/10/24 12:29:11;;;;;;;;;;;;;;;15.05;100.00;100075.25;5256148;28;19917;-73
2023/10/24 12:31:43;;;;;;;;;;;;;;;15.08;100.00;100079.38;5256776;28;19919;-75
2023/10/24 12:34:15;;;;;;;;;;;;;;;15.07;100.00;100085.63;5258483;28;20251;-73
2023/10/24 12:36:49;;;;;;;;;;;;;;;15.09;100.00;100083.63;5257778;28;19920;-73
2023/10/24 12:39:21;;;;;;;;;;;;;;;15.06;100.00;100081.34;5256662;28;19916;-73
2023/10/24 12:41:52;;;;;;;;;;;;;;;15.14;100.00;100091.00;5257087;28;19916;-75
2023/10/24 12:44:24;;;;;;;;;;;;;;;15.26;100.00;100084.31;5256706;28;19931;-74
2023/10/24 12:46:56;;;;;;;;;;;;;;;15.28;100.00;100087.59;5258994;28;19919;-74
2023/10/24 12:49:28;;;;;;;;;;;;;;;15.41;100.00;100077.22;5257744;28;19916;-74
2023/10/24 12:51:59;;;;;;;;;;;;;;;15.54;100.00;100074.78;5256228;28;19920;-74
2023/10/24 12:54:31;;;;;;;;;;;;;;;15.58;100.00;100069.97;5257149;28;20362;-73